createdAt,value
2017-01-11T00:00:33.139Z,0
2017-01-11T00:01:38.340Z,0
2017-01-11T00:02:43.299Z,0
2017-01-11T00:03:48.511Z,0
2017-01-11T00:04:53.712Z,0
2017-01-11T00:05:58.924Z,0
2017-01-11T00:07:04.181Z,0
2017-01-11T00:08:10.472Z,0
2017-01-11T00:09:15.634Z,0
2017-01-11T00:10:21.818Z,0
2017-01-11T00:11:27.994Z,0
2017-01-11T00:12:34.169Z,0
2017-01-11T00:13:38.439Z,0
2017-01-11T00:14:42.790Z,0
2017-01-11T00:15:48.981Z,0
2017-01-11T00:16:55.184Z,0
2017-01-11T00:18:01.315Z,0
2017-01-11T00:19:06.524Z,0
2017-01-11T00:20:12.706Z,0
2017-01-11T00:21:18.659Z,0
2017-01-11T00:22:24.822Z,0
2017-01-11T00:23:30.995Z,0
2017-01-11T00:24:37.169Z,0
2017-01-11T00:25:43.341Z,0
2017-01-11T00:26:48.531Z,0
2017-01-11T00:27:53.699Z,0
2017-01-11T00:28:59.861Z,0
2017-01-11T00:30:04.089Z,0
2017-01-11T00:31:10.257Z,0
2017-01-11T00:32:16.498Z,0
2017-01-11T00:33:47.375Z,0
2017-01-11T00:34:53.544Z,0
2017-01-11T00:35:59.714Z,0
2017-01-11T00:37:05.917Z,0
2017-01-11T00:38:12.048Z,0
2017-01-11T00:39:18.230Z,0
2017-01-11T00:40:24.401Z,0
2017-01-11T00:41:30.569Z,0
2017-01-11T00:42:36.738Z,0
2017-01-11T00:43:41.940Z,0
2017-01-11T00:44:48.103Z,0
2017-01-11T00:45:52.303Z,0
2017-01-11T00:46:58.474Z,0
2017-01-11T00:48:03.714Z,0
2017-01-11T00:49:10.020Z,0
2017-01-11T00:50:16.189Z,0
2017-01-11T00:51:22.352Z,0
2017-01-11T00:52:28.525Z,0
2017-01-11T00:53:33.729Z,0
2017-01-11T00:54:39.027Z,0
2017-01-11T00:55:44.351Z,0
2017-01-11T00:56:50.545Z,0
2017-01-11T00:57:56.712Z,0
2017-01-11T00:59:02.879Z,0
2017-01-11T01:00:07.086Z,0
2017-01-11T01:01:12.283Z,0
2017-01-11T01:02:18.447Z,0
2017-01-11T01:03:24.650Z,0
2017-01-11T01:04:29.851Z,0
2017-01-11T01:05:36.017Z,0
2017-01-11T01:06:42.192Z,0
2017-01-11T01:07:46.422Z,0
2017-01-11T01:08:52.596Z,0
2017-01-11T01:09:58.763Z,0
2017-01-11T01:11:04.935Z,0
2017-01-11T01:12:11.099Z,0
2017-01-11T01:13:14.450Z,0
2017-01-11T01:14:19.620Z,0
2017-01-11T01:15:24.827Z,0
2017-01-11T01:16:31.047Z,0
2017-01-11T01:17:36.348Z,0
2017-01-11T01:18:42.248Z,0
2017-01-11T01:19:48.410Z,0
2017-01-11T01:20:54.581Z,0
2017-01-11T01:22:00.788Z,0
2017-01-11T01:23:06.097Z,0
2017-01-11T01:24:11.298Z,0
2017-01-11T01:25:17.460Z,0
2017-01-11T01:26:22.669Z,0
2017-01-11T01:27:27.873Z,0
2017-01-11T01:28:34.057Z,0
2017-01-11T01:29:40.233Z,0
2017-01-11T01:30:46.418Z,0
2017-01-11T01:31:51.592Z,0
2017-01-11T01:32:57.762Z,0
2017-01-11T01:34:02.966Z,0
2017-01-11T01:35:09.186Z,0
2017-01-11T01:36:15.359Z,0
2017-01-11T01:37:21.539Z,0
2017-01-11T01:38:26.740Z,0
2017-01-11T01:39:31.942Z,0
2017-01-11T01:40:37.146Z,0
2017-01-11T01:41:43.316Z,0
2017-01-11T01:42:49.515Z,0
2017-01-11T01:43:54.772Z,0
2017-01-11T01:45:00.935Z,0
2017-01-11T01:46:06.188Z,0
2017-01-11T01:47:12.349Z,0
2017-01-11T01:48:18.517Z,0
2017-01-11T01:49:24.692Z,0
2017-01-11T01:50:30.863Z,0
2017-01-11T01:51:35.093Z,0
2017-01-11T01:52:40.296Z,0
2017-01-11T01:53:46.495Z,0
2017-01-11T01:54:52.629Z,0
2017-01-11T01:55:58.796Z,0
2017-01-11T01:57:03.996Z,0
2017-01-11T01:58:09.202Z,0
2017-01-11T01:59:15.364Z,0
2017-01-11T02:00:19.593Z,0
2017-01-11T02:01:24.775Z,0
2017-01-11T02:02:30.024Z,0
2017-01-11T02:03:35.232Z,0
2017-01-11T02:04:41.396Z,0
2017-01-11T02:05:46.624Z,0
2017-01-11T02:06:52.796Z,0
2017-01-11T02:07:57.999Z,0
2017-01-11T02:09:04.178Z,0
2017-01-11T02:10:10.346Z,0
2017-01-11T02:11:16.513Z,0
2017-01-11T02:12:20.746Z,0
2017-01-11T02:13:25.945Z,0
2017-01-11T02:14:30.189Z,0
2017-01-11T02:15:36.368Z,0
2017-01-11T02:16:42.564Z,0
2017-01-11T02:17:48.697Z,0
2017-01-11T02:18:53.894Z,0
2017-01-11T02:19:59.218Z,0
2017-01-11T02:21:05.397Z,0
2017-01-11T02:22:10.647Z,0
2017-01-11T02:23:16.812Z,0
2017-01-11T02:24:22.038Z,0
2017-01-11T02:25:26.238Z,0
2017-01-11T02:26:32.393Z,0
2017-01-11T02:27:37.603Z,0
2017-01-11T02:28:43.807Z,0
2017-01-11T02:29:49.941Z,0
2017-01-11T02:30:54.136Z,0
2017-01-11T02:31:57.440Z,0
2017-01-11T02:33:01.669Z,0
2017-01-11T02:34:07.836Z,0
2017-01-11T02:35:14.012Z,0
2017-01-11T02:36:17.263Z,0
2017-01-11T02:37:23.437Z,0
2017-01-11T02:38:29.634Z,0
2017-01-11T02:39:35.769Z,0
2017-01-11T02:40:41.942Z,0
2017-01-11T02:41:47.103Z,0
2017-01-11T02:42:53.271Z,0
2017-01-11T02:43:58.466Z,0
2017-01-11T02:45:02.666Z,0
2017-01-11T02:46:06.898Z,0
2017-01-11T02:47:13.066Z,0
2017-01-11T02:48:19.231Z,0
2017-01-11T02:49:23.852Z,0
2017-01-11T02:50:30.032Z,0
2017-01-11T02:51:36.288Z,0
2017-01-11T02:52:40.585Z,0
2017-01-11T02:53:46.721Z,0
2017-01-11T02:54:51.895Z,0
2017-01-11T02:55:57.071Z,0
2017-01-11T02:57:03.234Z,0
2017-01-11T02:58:09.408Z,0
2017-01-11T02:59:15.565Z,0
2017-01-11T03:00:21.732Z,0
2017-01-11T03:01:26.934Z,0
2017-01-11T03:02:33.101Z,0
2017-01-11T03:03:39.267Z,0
2017-01-11T03:04:45.446Z,0
2017-01-11T03:05:51.608Z,0
2017-01-11T03:06:57.781Z,0
2017-01-11T03:08:03.108Z,0
2017-01-11T03:09:09.280Z,0
2017-01-11T03:10:13.511Z,0
2017-01-11T03:11:19.727Z,0
2017-01-11T03:12:25.885Z,0
2017-01-11T03:13:31.088Z,0
2017-01-11T03:14:37.275Z,0
2017-01-11T03:15:43.442Z,0
2017-01-11T03:16:47.669Z,0
2017-01-11T03:17:52.879Z,0
2017-01-11T03:18:58.073Z,0
2017-01-11T03:20:03.275Z,0
2017-01-11T03:21:08.472Z,0
2017-01-11T03:22:13.668Z,0
2017-01-11T03:23:17.925Z,0
2017-01-11T03:24:23.129Z,0
2017-01-11T03:25:29.294Z,0
2017-01-11T03:26:35.467Z,0
2017-01-11T03:27:41.663Z,0
2017-01-11T03:28:47.865Z,0
2017-01-11T03:29:54.045Z,0
2017-01-11T03:31:00.180Z,0
2017-01-11T03:32:05.345Z,0
2017-01-11T03:33:10.539Z,0
2017-01-11T03:34:15.774Z,0
2017-01-11T03:35:21.900Z,0
2017-01-11T03:36:28.076Z,0
2017-01-11T03:37:31.312Z,0
2017-01-11T03:38:37.475Z,0
2017-01-11T03:39:42.677Z,0
2017-01-11T03:40:48.841Z,0
2017-01-11T03:41:54.073Z,0
2017-01-11T03:42:59.296Z,0
2017-01-11T03:44:05.465Z,0
2017-01-11T03:45:10.625Z,0
2017-01-11T03:46:14.863Z,0
2017-01-11T03:47:20.036Z,0
2017-01-11T03:48:26.205Z,0
2017-01-11T03:49:32.362Z,0
2017-01-11T03:50:37.556Z,0
2017-01-11T03:51:43.734Z,0
2017-01-11T03:52:49.901Z,0
2017-01-11T03:53:56.075Z,0
2017-01-11T03:55:01.275Z,0
2017-01-11T03:56:07.441Z,0
2017-01-11T03:57:13.607Z,0
2017-01-11T03:58:19.822Z,0
2017-01-11T03:59:26.002Z,0
2017-01-11T04:00:32.230Z,0
2017-01-11T04:01:37.430Z,0
2017-01-11T04:02:43.611Z,0
2017-01-11T04:03:49.770Z,0
2017-01-11T04:04:54.964Z,0
2017-01-11T04:05:59.224Z,0
2017-01-11T04:07:05.491Z,0
2017-01-11T04:08:10.696Z,0
2017-01-11T04:09:15.882Z,0
2017-01-11T04:10:22.050Z,0
2017-01-11T04:11:27.249Z,0
2017-01-11T04:12:31.508Z,0
2017-01-11T04:13:35.718Z,0
2017-01-11T04:14:41.967Z,0
2017-01-11T04:15:48.168Z,0
2017-01-11T04:16:54.326Z,0
2017-01-11T04:17:59.503Z,0
2017-01-11T04:19:05.677Z,0
2017-01-11T04:20:11.875Z,0
2017-01-11T04:21:18.098Z,0
2017-01-11T04:22:22.441Z,0
2017-01-11T04:23:27.638Z,0
2017-01-11T04:24:31.838Z,0
2017-01-11T04:25:36.094Z,0
2017-01-11T04:26:42.258Z,0
2017-01-11T04:27:48.429Z,0
2017-01-11T04:28:54.650Z,0
2017-01-11T04:29:59.825Z,0
2017-01-11T04:31:05.026Z,0
2017-01-11T04:32:11.186Z,0
2017-01-11T04:33:17.361Z,0
2017-01-11T04:34:23.526Z,0
2017-01-11T04:35:29.702Z,0
2017-01-11T04:36:34.895Z,0
2017-01-11T04:37:40.061Z,0
2017-01-11T04:38:46.229Z,0
2017-01-11T04:39:50.467Z,0
2017-01-11T04:40:56.636Z,0
2017-01-11T04:42:01.808Z,0
2017-01-11T04:43:08.029Z,0
2017-01-11T04:44:13.235Z,0
2017-01-11T04:45:18.155Z,0
2017-01-11T04:47:29.511Z,0
2017-01-11T04:48:35.683Z,0
2017-01-11T04:49:40.871Z,0
2017-01-11T04:50:46.068Z,0
2017-01-11T04:51:50.285Z,0
2017-01-11T04:52:56.454Z,0
2017-01-11T04:54:01.649Z,0
2017-01-11T04:55:07.817Z,0
2017-01-11T04:56:12.024Z,0
2017-01-11T04:57:18.191Z,0
2017-01-11T04:58:22.400Z,0
2017-01-11T04:59:28.567Z,0
2017-01-11T05:00:34.729Z,0
2017-01-11T05:01:41.021Z,0
2017-01-11T05:02:46.219Z,0
2017-01-11T05:03:52.393Z,0
2017-01-11T05:04:58.618Z,0
2017-01-11T05:06:04.784Z,0
2017-01-11T05:07:10.950Z,0
2017-01-11T05:08:16.145Z,0
2017-01-11T05:09:21.350Z,0
2017-01-11T05:10:26.538Z,0
2017-01-11T05:11:32.747Z,0
2017-01-11T05:12:37.915Z,0
2017-01-11T05:13:44.073Z,0
2017-01-11T05:14:50.258Z,0
2017-01-11T05:15:56.427Z,0
2017-01-11T05:17:01.599Z,0
2017-01-11T05:18:07.777Z,0
2017-01-11T05:19:14.051Z,0
2017-01-11T05:20:19.252Z,0
2017-01-11T05:21:24.443Z,0
2017-01-11T05:22:30.606Z,0
2017-01-11T05:23:36.771Z,0
2017-01-11T05:24:41.992Z,0
2017-01-11T05:25:48.240Z,0
2017-01-11T05:26:53.383Z,0
2017-01-11T05:27:59.546Z,0
2017-01-11T05:29:05.718Z,0
2017-01-11T05:30:11.913Z,0
2017-01-11T05:31:18.073Z,0
2017-01-11T05:32:22.276Z,0
2017-01-11T05:33:28.447Z,0
2017-01-11T05:34:34.676Z,0
2017-01-11T05:35:39.868Z,0
2017-01-11T05:36:46.031Z,0
2017-01-11T05:37:52.240Z,0
2017-01-11T05:38:58.416Z,0
2017-01-11T05:40:03.610Z,0
2017-01-11T05:41:09.772Z,0
2017-01-11T05:42:15.945Z,0
2017-01-11T05:43:21.142Z,0
2017-01-11T05:44:27.307Z,0
2017-01-11T05:45:33.488Z,0
2017-01-11T05:46:38.755Z,0
2017-01-11T05:47:43.971Z,0
2017-01-11T05:48:50.133Z,0
2017-01-11T05:49:56.298Z,0
2017-01-11T05:51:01.501Z,0
2017-01-11T05:52:07.372Z,0
2017-01-11T05:53:12.568Z,0
2017-01-11T05:54:18.742Z,0
2017-01-11T05:55:22.984Z,0
2017-01-11T05:56:29.146Z,0
2017-01-11T05:57:35.316Z,0
2017-01-11T05:58:41.488Z,0
2017-01-11T05:59:46.686Z,0
2017-01-11T06:00:52.920Z,0
2017-01-11T06:01:58.178Z,0
2017-01-11T06:03:03.377Z,0
2017-01-11T06:04:08.579Z,0
2017-01-11T06:05:13.757Z,0
2017-01-11T06:06:19.974Z,0
2017-01-11T06:07:26.143Z,0
2017-01-11T06:08:31.316Z,0
2017-01-11T06:09:37.475Z,0
2017-01-11T06:10:42.717Z,0
2017-01-11T06:11:48.988Z,0
2017-01-11T06:12:54.553Z,0
2017-01-11T06:13:58.769Z,0
2017-01-11T06:15:05.007Z,0
2017-01-11T06:16:11.166Z,0
2017-01-11T06:17:16.360Z,0
2017-01-11T06:18:22.579Z,0
2017-01-11T06:19:27.798Z,0
2017-01-11T06:20:32.964Z,0
2017-01-11T06:21:38.133Z,0
2017-01-11T06:22:44.295Z,0
2017-01-11T06:23:50.465Z,0
2017-01-11T06:24:56.641Z,0
2017-01-11T06:26:02.800Z,0
2017-01-11T06:27:07.996Z,0
2017-01-11T06:28:12.197Z,0
2017-01-11T06:29:18.368Z,0
2017-01-11T06:30:24.539Z,0
2017-01-11T06:31:29.755Z,0
2017-01-11T06:32:34.936Z,0
2017-01-11T06:33:41.114Z,0
2017-01-11T06:34:45.343Z,0
2017-01-11T06:35:49.568Z,0
2017-01-11T06:36:54.792Z,0
2017-01-11T06:37:59.969Z,0
2017-01-11T06:39:06.129Z,0
2017-01-11T06:40:12.304Z,0
2017-01-11T06:41:18.470Z,0
2017-01-11T06:42:24.634Z,0
2017-01-11T06:43:29.176Z,0
2017-01-11T06:44:35.337Z,0
2017-01-11T06:45:41.513Z,0
2017-01-11T06:46:47.684Z,0
2017-01-11T06:47:52.883Z,0
2017-01-11T06:48:58.077Z,0
2017-01-11T06:50:03.379Z,0
2017-01-11T06:51:09.557Z,0
2017-01-11T06:52:15.722Z,0
2017-01-11T06:53:21.893Z,0
2017-01-11T06:54:28.053Z,0
2017-01-11T06:55:34.229Z,0
2017-01-11T06:56:40.392Z,0
2017-01-11T06:57:45.588Z,0
2017-01-11T06:58:50.754Z,0
2017-01-11T06:59:56.917Z,0
2017-01-11T07:01:03.082Z,0
2017-01-11T07:02:09.247Z,0
2017-01-11T07:03:15.406Z,0
2017-01-11T07:04:19.643Z,0
2017-01-11T07:06:32.049Z,0
2017-01-11T07:07:38.207Z,0
2017-01-11T07:08:43.408Z,0
2017-01-11T07:09:49.584Z,0
2017-01-11T07:10:55.747Z,0
2017-01-11T07:11:59.956Z,0
2017-01-11T07:13:06.115Z,0
2017-01-11T07:14:12.294Z,0
2017-01-11T07:15:17.490Z,0
2017-01-11T07:16:22.697Z,0
2017-01-11T07:17:26.892Z,0
2017-01-11T07:18:33.058Z,0
2017-01-11T07:19:39.222Z,0
2017-01-11T07:20:45.392Z,0
2017-01-11T07:21:51.559Z,0
2017-01-11T07:22:57.742Z,0
2017-01-11T07:24:03.901Z,0
2017-01-11T07:25:09.715Z,0
2017-01-11T07:26:15.886Z,0
2017-01-11T07:27:20.220Z,0
2017-01-11T07:28:26.490Z,0
2017-01-11T07:29:32.654Z,0
2017-01-11T07:30:38.833Z,0
2017-01-11T07:31:45.014Z,5
2017-01-11T07:32:51.170Z,5
2017-01-11T07:33:57.352Z,5
2017-01-11T07:35:02.582Z,0
2017-01-11T07:36:07.791Z,0
2017-01-11T07:37:12.989Z,0
2017-01-11T07:38:18.195Z,0
2017-01-11T07:39:23.429Z,0
2017-01-11T07:40:29.716Z,0
2017-01-11T07:41:35.883Z,0
2017-01-11T07:42:42.068Z,0
2017-01-11T07:43:48.239Z,0
2017-01-11T07:44:53.415Z,0
2017-01-11T07:45:58.618Z,5
2017-01-11T07:47:03.828Z,5
2017-01-11T07:48:09.029Z,5
2017-01-11T07:49:14.371Z,5
2017-01-11T07:50:20.499Z,5
2017-01-11T07:51:25.704Z,5
2017-01-11T07:52:31.868Z,5
2017-01-11T07:53:38.073Z,5
2017-01-11T07:54:44.236Z,5
2017-01-11T07:55:50.451Z,5
2017-01-11T07:56:56.619Z,10
2017-01-11T07:58:02.785Z,10
2017-01-11T07:59:08.319Z,10
2017-01-11T08:00:12.518Z,15
2017-01-11T08:01:18.690Z,15
2017-01-11T08:02:24.848Z,10
2017-01-11T08:03:30.442Z,10
2017-01-11T08:04:36.609Z,15
2017-01-11T08:05:42.766Z,15
2017-01-11T08:06:48.028Z,15
2017-01-11T08:07:53.180Z,10
2017-01-11T08:08:59.358Z,15
2017-01-11T08:10:03.582Z,10
2017-01-11T08:11:09.754Z,15
2017-01-11T08:12:14.991Z,15
2017-01-11T08:13:20.181Z,20
2017-01-11T08:14:24.593Z,20
2017-01-11T08:15:30.672Z,20
2017-01-11T08:16:36.866Z,20
2017-01-11T08:17:43.035Z,20
2017-01-11T08:18:48.224Z,25
2017-01-11T08:19:54.402Z,35
2017-01-11T08:21:00.648Z,45
2017-01-11T08:22:05.819Z,45
2017-01-11T08:23:10.022Z,50
2017-01-11T08:24:14.228Z,45
2017-01-11T08:25:18.457Z,55
2017-01-11T08:26:24.630Z,50
2017-01-11T08:27:29.826Z,50
2017-01-11T08:28:35.989Z,25
2017-01-11T08:29:42.168Z,30
2017-01-11T08:30:48.329Z,25
2017-01-11T08:31:52.569Z,25
2017-01-11T08:32:58.868Z,25
2017-01-11T08:34:02.148Z,25
2017-01-11T08:35:07.612Z,30
2017-01-11T08:36:13.778Z,30
2017-01-11T08:37:19.046Z,30
2017-01-11T08:38:25.205Z,20
2017-01-11T08:39:30.509Z,20
2017-01-11T08:40:35.682Z,20
2017-01-11T08:41:41.961Z,25
2017-01-11T08:42:48.137Z,30
2017-01-11T08:44:59.514Z,35
2017-01-11T08:46:05.682Z,40
2017-01-11T08:47:11.851Z,30
2017-01-11T08:48:18.111Z,30
2017-01-11T08:49:24.278Z,30
2017-01-11T08:50:30.457Z,25
2017-01-11T08:51:36.629Z,30
2017-01-11T08:52:42.828Z,40
2017-01-11T08:53:49.005Z,45
2017-01-11T08:54:55.177Z,35
2017-01-11T08:56:01.359Z,25
2017-01-11T08:57:06.568Z,25
2017-01-11T08:58:12.726Z,35
2017-01-11T08:59:18.897Z,35
2017-01-11T09:00:24.092Z,35
2017-01-11T09:01:30.269Z,30
2017-01-11T09:02:34.489Z,30
2017-01-11T09:03:39.696Z,25
2017-01-11T09:04:45.926Z,25
2017-01-11T09:05:52.100Z,35
2017-01-11T09:06:58.260Z,35
2017-01-11T09:08:03.492Z,40
2017-01-11T09:09:09.640Z,35
2017-01-11T09:10:15.809Z,30
2017-01-11T09:11:21.017Z,35
2017-01-11T09:12:27.186Z,35
2017-01-11T09:13:32.389Z,45
2017-01-11T09:14:37.581Z,60
2017-01-11T09:15:43.767Z,55
2017-01-11T09:16:48.965Z,50
2017-01-11T09:17:54.163Z,40
2017-01-11T09:19:00.319Z,50
2017-01-11T09:20:06.489Z,35
2017-01-11T09:21:12.659Z,40
2017-01-11T09:22:18.838Z,35
2017-01-11T09:23:24.088Z,50
2017-01-11T09:24:30.187Z,50
2017-01-11T09:25:35.385Z,50
2017-01-11T09:26:40.582Z,45
2017-01-11T09:27:45.778Z,45
2017-01-11T09:28:51.992Z,45
2017-01-11T09:29:58.165Z,55
2017-01-11T09:31:04.331Z,50
2017-01-11T09:32:10.576Z,60
2017-01-11T09:33:16.747Z,55
2017-01-11T09:34:22.917Z,65
2017-01-11T09:35:28.195Z,70
2017-01-11T09:36:33.388Z,75
2017-01-11T09:37:39.555Z,50
2017-01-11T09:38:44.753Z,55
2017-01-11T09:39:50.925Z,65
2017-01-11T09:40:56.155Z,70
2017-01-11T09:42:02.294Z,65
2017-01-11T09:43:08.542Z,70
2017-01-11T09:44:14.701Z,70
2017-01-11T09:45:20.873Z,75
2017-01-11T09:46:26.060Z,60
2017-01-11T09:47:32.231Z,75
2017-01-11T09:48:37.431Z,70
2017-01-11T09:49:43.594Z,65
2017-01-11T09:50:49.783Z,80
2017-01-11T09:51:55.943Z,85
2017-01-11T09:53:02.106Z,80
2017-01-11T09:54:08.270Z,70
2017-01-11T09:55:14.590Z,75
2017-01-11T09:57:25.927Z,100
2017-01-11T09:58:32.098Z,85
2017-01-11T09:59:38.266Z,90
2017-01-11T10:00:43.476Z,110
2017-01-11T10:01:48.903Z,105
2017-01-11T10:02:55.189Z,75
2017-01-11T10:04:01.417Z,75
2017-01-11T10:05:07.626Z,60
2017-01-11T10:06:13.775Z,60
2017-01-11T10:07:18.974Z,70
2017-01-11T10:08:24.162Z,60
2017-01-11T10:09:29.349Z,60
2017-01-11T10:10:33.558Z,70
2017-01-11T10:11:38.760Z,80
2017-01-11T10:12:43.947Z,80
2017-01-11T10:13:48.153Z,60
2017-01-11T10:14:54.314Z,60
2017-01-11T10:16:00.480Z,55
2017-01-11T10:17:05.649Z,60
2017-01-11T10:18:09.850Z,60
2017-01-11T10:19:16.021Z,45
2017-01-11T10:20:22.182Z,60
2017-01-11T10:21:28.350Z,65
2017-01-11T10:22:34.527Z,75
2017-01-11T10:23:39.696Z,85
2017-01-11T10:24:45.893Z,75
2017-01-11T10:25:52.031Z,55
2017-01-11T10:26:58.234Z,50
2017-01-11T10:28:02.435Z,50
2017-01-11T10:29:08.664Z,55
2017-01-11T10:30:13.857Z,80
2017-01-11T10:31:19.040Z,80
2017-01-11T10:32:25.211Z,80
2017-01-11T10:33:30.415Z,75
2017-01-11T10:34:35.585Z,75
2017-01-11T10:35:40.810Z,65
2017-01-11T10:36:46.966Z,80
2017-01-11T10:37:52.212Z,55
2017-01-11T10:38:55.456Z,50
2017-01-11T10:40:00.650Z,50
2017-01-11T10:41:03.889Z,50
2017-01-11T10:42:09.126Z,75
2017-01-11T10:43:14.304Z,85
2017-01-11T10:44:20.478Z,100
2017-01-11T10:45:25.675Z,90
2017-01-11T10:46:30.872Z,95
2017-01-11T10:47:34.155Z,80
2017-01-11T10:48:40.374Z,70
2017-01-11T10:49:45.540Z,60
2017-01-11T10:50:50.778Z,45
2017-01-11T10:51:55.948Z,50
2017-01-11T10:53:01.144Z,40
2017-01-11T10:54:05.345Z,60
2017-01-11T10:56:16.713Z,30
2017-01-11T10:57:21.919Z,25
2017-01-11T10:58:26.154Z,35
2017-01-11T10:59:30.366Z,30
2017-01-11T11:00:35.565Z,45
2017-01-11T11:01:40.755Z,70
2017-01-11T11:02:45.957Z,55
2017-01-11T11:03:50.164Z,80
2017-01-11T11:04:56.331Z,90
2017-01-11T11:06:02.494Z,60
2017-01-11T11:07:07.696Z,45
2017-01-11T11:08:12.865Z,40
2017-01-11T11:09:17.105Z,30
2017-01-11T11:10:21.345Z,35
2017-01-11T11:11:26.549Z,75
2017-01-11T11:12:30.784Z,95
2017-01-11T11:13:36.953Z,85
2017-01-11T11:14:40.189Z,110
2017-01-11T11:15:43.432Z,105
2017-01-11T11:16:48.285Z,55
2017-01-11T11:18:57.684Z,40
2017-01-11T11:20:01.888Z,30
2017-01-11T11:21:07.096Z,35
2017-01-11T11:22:12.291Z,45
2017-01-11T11:23:17.494Z,45
2017-01-11T11:24:23.660Z,55
2017-01-11T11:25:28.852Z,75
2017-01-11T11:26:34.049Z,75
2017-01-11T11:27:39.243Z,55
2017-01-11T11:28:45.419Z,40
2017-01-11T11:29:51.327Z,35
2017-01-11T11:30:56.527Z,40
2017-01-11T11:32:01.740Z,45
2017-01-11T11:33:07.944Z,50
2017-01-11T11:34:14.127Z,45
2017-01-11T11:35:19.363Z,35
2017-01-11T11:36:22.621Z,30
2017-01-11T11:37:27.832Z,30
2017-01-11T11:38:32.059Z,20
2017-01-11T11:39:38.231Z,25
2017-01-11T11:40:44.397Z,40
2017-01-11T11:41:50.632Z,65
2017-01-11T11:42:55.874Z,60
2017-01-11T11:44:02.035Z,55
2017-01-11T11:45:08.236Z,40
2017-01-11T11:46:14.375Z,35
2017-01-11T11:47:19.573Z,40
2017-01-11T11:48:22.924Z,45
2017-01-11T11:49:28.086Z,45
2017-01-11T11:50:34.254Z,60
2017-01-11T11:51:39.452Z,65
2017-01-11T11:52:45.620Z,55
2017-01-11T11:53:50.835Z,40
2017-01-11T11:54:57.056Z,55
2017-01-11T11:56:03.200Z,55
2017-01-11T11:57:08.366Z,65
2017-01-11T11:58:11.607Z,70
2017-01-11T11:59:16.783Z,75
2017-01-11T12:00:22.955Z,30
2017-01-11T12:01:29.125Z,35
2017-01-11T12:02:32.372Z,50
2017-01-11T12:03:38.540Z,70
2017-01-11T12:04:42.743Z,60
2017-01-11T12:05:48.907Z,60
2017-01-11T12:06:54.176Z,60
2017-01-11T12:08:00.455Z,45
2017-01-11T12:09:05.328Z,35
2017-01-11T12:10:10.525Z,40
2017-01-11T12:11:14.735Z,50
2017-01-11T12:12:18.973Z,60
2017-01-11T12:13:23.163Z,55
2017-01-11T12:14:28.364Z,40
2017-01-11T12:15:34.577Z,45
2017-01-11T12:16:40.741Z,75
2017-01-11T12:17:46.911Z,60
2017-01-11T12:18:53.196Z,75
2017-01-11T12:19:58.405Z,60
2017-01-11T12:21:03.589Z,65
2017-01-11T12:22:08.793Z,50
2017-01-11T12:23:14.953Z,75
2017-01-11T12:24:20.162Z,65
2017-01-11T12:25:26.395Z,55
2017-01-11T12:26:30.666Z,75
2017-01-11T12:27:36.793Z,65
2017-01-11T12:28:41.990Z,100
2017-01-11T12:29:47.188Z,110
2017-01-11T12:30:53.346Z,110
2017-01-11T12:31:58.558Z,105
2017-01-11T12:33:04.728Z,105
2017-01-11T12:34:10.887Z,120
2017-01-11T12:35:15.122Z,75
2017-01-11T12:36:19.329Z,70
2017-01-11T12:37:25.504Z,65
2017-01-11T12:38:28.842Z,70
2017-01-11T12:39:32.214Z,85
2017-01-11T12:40:38.404Z,80
2017-01-11T12:41:43.968Z,95
2017-01-11T12:42:49.140Z,100
2017-01-11T12:43:55.301Z,95
2017-01-11T12:45:01.476Z,105
2017-01-11T12:46:07.647Z,85
2017-01-11T12:47:13.819Z,75
2017-01-11T12:48:19.990Z,70
2017-01-11T12:49:25.195Z,70
2017-01-11T12:50:29.425Z,75
2017-01-11T12:51:35.594Z,65
2017-01-11T12:52:40.797Z,60
2017-01-11T12:53:46.961Z,75
2017-01-11T12:54:53.129Z,70
2017-01-11T12:55:59.301Z,85
2017-01-11T12:57:04.505Z,65
2017-01-11T12:58:09.713Z,70
2017-01-11T12:59:13.926Z,75
2017-01-11T13:00:20.106Z,100
2017-01-11T13:01:26.328Z,120
2017-01-11T13:02:32.463Z,120
2017-01-11T13:03:37.665Z,135
2017-01-11T13:04:43.837Z,160
2017-01-11T13:05:50.017Z,185
2017-01-11T13:06:55.215Z,210
2017-01-11T13:08:00.436Z,225
2017-01-11T13:09:04.621Z,240
2017-01-11T13:10:08.854Z,200
2017-01-11T13:11:15.022Z,155
2017-01-11T13:12:18.316Z,130
2017-01-11T13:13:21.566Z,120
2017-01-11T13:14:27.735Z,140
2017-01-11T13:15:32.935Z,160
2017-01-11T13:16:39.102Z,165
2017-01-11T13:17:43.327Z,170
2017-01-11T13:18:49.507Z,165
2017-01-11T13:19:55.773Z,170
2017-01-11T13:21:01.939Z,175
2017-01-11T13:22:07.119Z,175
2017-01-11T13:23:11.344Z,175
2017-01-11T13:24:14.596Z,175
2017-01-11T13:25:18.829Z,165
2017-01-11T13:26:21.100Z,165
2017-01-11T13:27:24.473Z,155
2017-01-11T13:28:29.673Z,160
2017-01-11T13:29:35.847Z,140
2017-01-11T13:30:39.124Z,140
2017-01-11T13:31:44.325Z,135
2017-01-11T13:32:49.519Z,135
2017-01-11T13:33:55.739Z,135
2017-01-11T13:35:01.905Z,115
2017-01-11T13:36:06.119Z,105
2017-01-11T13:37:11.324Z,90
2017-01-11T13:38:17.496Z,75
2017-01-11T13:39:20.763Z,75
2017-01-11T13:40:26.922Z,65
2017-01-11T13:41:33.086Z,45
2017-01-11T13:42:37.293Z,35
2017-01-11T13:43:42.506Z,40
2017-01-11T13:44:47.706Z,55
2017-01-11T13:45:53.886Z,40
2017-01-11T13:46:59.091Z,35
2017-01-11T13:48:04.307Z,35
2017-01-11T13:49:10.572Z,40
2017-01-11T13:50:14.804Z,65
2017-01-11T13:51:18.057Z,55
2017-01-11T13:52:23.253Z,55
2017-01-11T13:53:28.462Z,65
2017-01-11T13:54:34.626Z,70
2017-01-11T13:55:39.846Z,90
2017-01-11T13:56:45.040Z,100
2017-01-11T13:57:49.272Z,120
2017-01-11T13:58:54.475Z,125
2017-01-11T13:59:59.675Z,125
2017-01-11T14:01:04.910Z,125
2017-01-11T14:02:10.079Z,125
2017-01-11T14:03:15.289Z,110
2017-01-11T14:04:20.460Z,100
2017-01-11T14:05:25.652Z,100
2017-01-11T14:06:30.859Z,65
2017-01-11T14:07:37.038Z,85
2017-01-11T14:08:42.236Z,65
2017-01-11T14:09:47.488Z,50
2017-01-11T14:10:52.691Z,60
2017-01-11T14:11:56.903Z,75
2017-01-11T14:13:02.094Z,90
2017-01-11T14:14:06.341Z,80
2017-01-11T14:15:12.511Z,90
2017-01-11T14:16:16.723Z,85
2017-01-11T14:17:22.258Z,90
2017-01-11T14:18:24.528Z,85
2017-01-11T14:19:29.768Z,80
2017-01-11T14:20:34.938Z,80
2017-01-11T14:21:41.107Z,80
2017-01-11T14:22:46.386Z,80
2017-01-11T14:23:50.599Z,80
2017-01-11T14:24:55.775Z,85
2017-01-11T14:26:00.984Z,80
2017-01-11T14:27:06.250Z,80
2017-01-11T14:28:12.419Z,85
2017-01-11T14:29:16.646Z,85
2017-01-11T14:30:19.880Z,85
2017-01-11T14:31:26.052Z,80
2017-01-11T14:32:31.327Z,80
2017-01-11T14:33:37.497Z,80
2017-01-11T14:34:41.734Z,80
2017-01-11T14:35:46.972Z,75
2017-01-11T14:36:52.153Z,75
2017-01-11T14:37:57.472Z,75
2017-01-11T14:39:02.668Z,80
2017-01-11T14:40:08.848Z,75
2017-01-11T14:41:14.045Z,70
2017-01-11T14:42:20.198Z,70
2017-01-11T14:43:26.383Z,70
2017-01-11T14:44:31.574Z,70
2017-01-11T14:45:36.776Z,60
2017-01-11T14:46:40.023Z,60
2017-01-11T14:47:46.206Z,60
2017-01-11T14:48:51.400Z,60
2017-01-11T14:49:56.670Z,55
2017-01-11T14:51:01.782Z,45
2017-01-11T14:52:06.987Z,40
2017-01-11T14:53:12.184Z,35
2017-01-11T14:54:17.380Z,35
2017-01-11T14:55:22.563Z,35
2017-01-11T14:56:28.771Z,35
2017-01-11T14:57:33.925Z,35
2017-01-11T14:58:40.091Z,45
2017-01-11T14:59:45.334Z,40
2017-01-11T15:00:50.507Z,30
2017-01-11T15:01:54.758Z,35
2017-01-11T15:02:59.949Z,30
2017-01-11T15:04:06.118Z,30
2017-01-11T15:05:12.296Z,30
2017-01-11T15:06:17.498Z,30
2017-01-11T15:07:23.667Z,25
2017-01-11T15:08:28.920Z,25
2017-01-11T15:09:35.051Z,25
2017-01-11T15:10:40.266Z,20
2017-01-11T15:11:46.433Z,20
2017-01-11T15:12:52.593Z,20
2017-01-11T15:13:58.797Z,20
2017-01-11T15:15:05.060Z,15
2017-01-11T15:16:10.169Z,10
2017-01-11T15:17:14.416Z,10
2017-01-11T15:18:18.751Z,10
2017-01-11T15:19:24.921Z,5
2017-01-11T15:20:30.125Z,5
2017-01-11T15:21:36.294Z,10
2017-01-11T15:22:41.505Z,10
2017-01-11T15:23:46.826Z,10
2017-01-11T15:24:53.024Z,15
2017-01-11T15:25:58.298Z,15
2017-01-11T15:27:04.438Z,10
2017-01-11T15:28:10.608Z,10
2017-01-11T15:29:15.819Z,5
2017-01-11T15:30:21.076Z,5
2017-01-11T15:31:26.225Z,5
2017-01-11T15:32:32.396Z,5
2017-01-11T15:33:38.562Z,5
2017-01-11T15:34:41.856Z,5
2017-01-11T15:35:47.112Z,5
2017-01-11T15:36:51.362Z,5
2017-01-11T15:37:57.544Z,5
2017-01-11T15:39:03.747Z,5
2017-01-11T15:40:08.939Z,5
2017-01-11T15:41:13.149Z,5
2017-01-11T15:42:18.353Z,0
2017-01-11T15:43:22.678Z,0
2017-01-11T15:44:26.894Z,0
2017-01-11T15:45:31.202Z,0
2017-01-11T15:46:37.373Z,0
2017-01-11T15:47:41.687Z,0
2017-01-11T15:48:47.849Z,0
2017-01-11T15:49:52.056Z,0
2017-01-11T15:50:57.249Z,0
2017-01-11T15:52:02.449Z,0
2017-01-11T15:53:05.712Z,0
2017-01-11T15:54:10.899Z,0
2017-01-11T15:55:17.068Z,0
2017-01-11T15:56:21.881Z,0
2017-01-11T15:57:27.078Z,0